Time;durP1;ratioP1;P1;durP2;ratioP2;P2;SDS_P1;SDS_P2;PMS_P1;PMS_P2;Temp;Humidity;BMP_temperature;BMP_pressure;BME280_temperature;BME280_humidity;BME280_pressure;Samples;Min_cycle;Max_cycle;Signal;HPM_P1;HPM_P2
2022/06/17 00:01:21;;;;;;;7.20;6.40;;;13.80;99.90;;;;;;5049522;28;20041;-29
2022/06/17 00:03:53;;;;;;;6.18;5.57;;;13.80;99.90;;;;;;5043733;28;20056;-29
2022/06/17 00:06:24;;;;;;;6.57;5.70;;;13.80;99.90;;;;;;5048690;28;20388;-29
2022/06/17 00:08:52;;;;;;;8.45;5.50;;;13.70;99.90;;;;;;5046687;28;20037;-29
2022/06/17 00:11:22;;;;;;;8.50;6.30;;;13.70;99.90;;;;;;5044448;28;20476;-29
2022/06/17 00:13:48;;;;;;;7.78;6.13;;;13.60;99.90;;;;;;5043147;28;20407;-29
2022/06/17 00:16:17;;;;;;;7.72;5.80;;;13.60;99.90;;;;;;5046780;28;20033;-29
2022/06/17 00:18:42;;;;;;;6.13;5.53;;;13.60;99.90;;;;;;5032189;28;20048;-29
2022/06/17 00:21:35;;;;;;;6.57;5.85;;;13.60;99.90;;;;;;5048379;28;20177;-30
2022/06/17 00:24:06;;;;;;;7.18;4.93;;;13.60;99.90;;;;;;5041716;28;20045;-29
2022/06/17 00:26:31;;;;;;;6.22;5.20;;;13.50;99.90;;;;;;5039818;28;20036;-29
2022/06/17 00:28:57;;;;;;;5.57;5.07;;;13.50;99.90;;;;;;5044538;28;20037;-29
2022/06/17 00:31:23;;;;;;;5.90;5.30;;;13.50;99.90;;;;;;5045648;28;20095;-29
2022/06/17 00:33:48;;;;;;;6.63;5.82;;;13.50;99.90;;;;;;5027179;28;20337;-29
2022/06/17 00:36:18;;;;;;;6.57;5.80;;;13.50;99.90;;;;;;5044842;28;20084;-29
2022/06/17 00:38:44;;;;;;;5.72;5.13;;;13.50;99.90;;;;;;5046517;28;20033;-29
2022/06/17 00:41:30;;;;;;;6.78;6.18;;;13.50;99.90;;;;;;5011256;28;20106;-29
2022/06/17 00:43:57;;;;;;;6.40;5.80;;;13.40;99.90;;;;;;5043128;28;20033;-29
2022/06/17 00:46:45;;;;;;;7.18;6.45;;;13.40;99.90;;;;;;5042349;28;20119;-29
2022/06/17 00:49:46;;;;;;;6.65;6.07;;;13.40;99.90;;;;;;5049891;28;20744;-29
2022/06/17 00:52:25;;;;;;;6.38;5.78;;;13.40;99.90;;;;;;5001817;28;20459;-29
2022/06/17 00:54:58;;;;;;;6.53;5.70;;;13.40;99.90;;;;;;5048093;28;20508;-29
2022/06/17 00:57:27;;;;;;;7.15;6.45;;;13.40;99.90;;;;;;5047407;28;20068;-30
2022/06/17 01:00:05;;;;;;;7.97;6.68;;;13.40;99.90;;;;;;5045476;28;20029;-29
2022/06/17 01:02:35;;;;;;;6.75;6.05;;;13.40;99.90;;;;;;5031915;28;20045;-29
2022/06/17 01:05:03;;;;;;;6.97;6.25;;;13.40;99.90;;;;;;5050356;28;20511;-29
2022/06/17 01:07:36;;;;;;;8.32;6.07;;;13.40;99.90;;;;;;5050120;28;20095;-29
2022/06/17 01:10:09;;;;;;;8.05;7.05;;;13.40;99.90;;;;;;5051634;28;20033;-28
2022/06/17 01:12:43;;;;;;;6.65;6.05;;;13.40;99.90;;;;;;5041935;28;20041;-28
2022/06/17 01:15:14;;;;;;;6.80;6.15;;;13.40;99.90;;;;;;5050959;28;20514;-28
2022/06/17 01:17:40;;;;;;;7.72;6.88;;;13.40;99.90;;;;;;5050517;28;20416;-28
2022/06/17 01:20:08;;;;;;;8.98;7.13;;;13.40;99.90;;;;;;5045315;28;20034;-29
2022/06/17 01:22:43;;;;;;;7.63;6.93;;;13.40;99.90;;;;;;5042756;28;20041;-29
2022/06/17 01:25:19;;;;;;;7.88;7.07;;;13.30;99.90;;;;;;5048441;28;20084;-28
2022/06/17 01:27:47;;;;;;;7.30;6.60;;;13.30;99.90;;;;;;5033048;28;20049;-28
2022/06/17 01:30:21;;;;;;;10.13;6.30;;;13.30;99.90;;;;;;5041392;28;20150;-28
2022/06/17 01:32:53;;;;;;;8.25;7.53;;;13.30;99.90;;;;;;5050776;28;20041;-28
2022/06/17 01:35:22;;;;;;;8.27;7.10;;;13.30;99.90;;;;;;5048503;28;20045;-28
2022/06/17 01:37:48;;;;;;;8.68;7.88;;;13.20;99.90;;;;;;5032496;28;20116;-28
2022/06/17 01:40:15;;;;;;;8.18;7.38;;;13.30;99.90;;;;;;5043071;28;20052;-28
2022/06/17 01:42:42;;;;;;;8.70;7.90;;;13.20;99.90;;;;;;5038643;28;20112;-28
2022/06/17 01:45:08;;;;;;;8.85;7.93;;;13.20;99.90;;;;;;5043615;28;20056;-28
2022/06/17 01:47:36;;;;;;;9.48;8.63;;;13.20;99.90;;;;;;5047446;28;20087;-28
2022/06/17 01:50:11;;;;;;;9.43;8.52;;;13.20;99.90;;;;;;5037697;28;20044;-28
2022/06/17 01:53:00;;;;;;;11.50;8.30;;;13.20;99.90;;;;;;5040149;28;20052;-28
2022/06/17 01:55:43;;;;;;;9.73;8.73;;;13.10;99.90;;;;;;5049249;28;20037;-28
2022/06/17 01:58:32;;;;;;;10.20;8.77;;;13.10;99.90;;;;;;5046458;28;20396;-28
2022/06/17 02:01:00;;;;;;;12.65;10.05;;;13.10;99.90;;;;;;5037256;28;20055;-28
2022/06/17 02:03:38;;;;;;;13.43;10.55;;;13.10;99.90;;;;;;5041779;28;20532;-28
2022/06/17 02:06:11;;;;;;;14.10;11.98;;;13.20;99.90;;;;;;5033670;28;20056;-28
2022/06/17 02:08:37;;;;;;;13.40;11.55;;;13.20;99.90;;;;;;5038503;28;21321;-28
2022/06/17 02:11:05;;;;;;;13.95;10.25;;;13.20;99.90;;;;;;5036489;28;20508;-28
2022/06/17 02:13:32;;;;;;;12.75;9.93;;;13.20;99.90;;;;;;5043085;28;20055;-28
2022/06/17 02:16:03;;;;;;;12.43;11.10;;;13.20;99.90;;;;;;5039162;28;20519;-28
2022/06/17 02:18:30;;;;;;;12.48;10.93;;;13.20;99.90;;;;;;5042513;28;20044;-28
2022/06/17 02:20:58;;;;;;;12.15;10.82;;;13.20;99.90;;;;;;5038745;28;20048;-28
2022/06/17 02:23:26;;;;;;;13.07;11.65;;;13.10;99.90;;;;;;5043689;28;20033;-28
2022/06/17 02:25:53;;;;;;;11.32;10.25;;;13.10;99.90;;;;;;5040732;28;20116;-28
2022/06/17 02:28:20;;;;;;;11.57;10.18;;;13.10;99.90;;;;;;5042340;28;20041;-28
2022/06/17 02:30:49;;;;;;;12.35;11.20;;;13.10;99.90;;;;;;5040420;28;20512;-28
2022/06/17 02:33:15;;;;;;;11.82;10.63;;;13.10;99.90;;;;;;5033805;28;20042;-28
2022/06/17 02:35:56;;;;;;;14.20;11.25;;;13.10;99.90;;;;;;5040429;28;20044;-28
2022/06/17 02:38:25;;;;;;;11.77;10.43;;;13.10;99.90;;;;;;5041441;28;20040;-28
2022/06/17 02:40:59;;;;;;;11.55;10.35;;;13.10;99.90;;;;;;5042704;28;20106;-28
2022/06/17 02:43:28;;;;;;;12.55;11.13;;;13.00;99.90;;;;;;5043485;28;20501;-28
2022/06/17 02:46:37;;;;;;;12.13;10.88;;;13.00;99.90;;;;;;5034311;28;20505;-28
2022/06/17 02:49:07;;;;;;;13.32;11.93;;;12.90;99.90;;;;;;5043536;28;20046;-28
2022/06/17 02:51:37;;;;;;;13.63;11.82;;;12.90;99.90;;;;;;5023574;28;20140;-28
2022/06/17 02:54:05;;;;;;;14.82;12.68;;;12.90;99.90;;;;;;5018832;28;20045;-28
2022/06/17 02:56:33;;;;;;;15.48;12.15;;;13.00;99.90;;;;;;5041884;28;20032;-28
2022/06/17 02:59:18;;;;;;;13.65;11.77;;;13.00;99.90;;;;;;5041185;28;20090;-28
2022/06/17 03:01:44;;;;;;;13.07;11.63;;;13.00;99.90;;;;;;5039885;28;20036;-29
2022/06/17 03:04:19;;;;;;;13.15;11.80;;;13.00;99.90;;;;;;5039652;28;20052;-28
2022/06/17 03:06:47;;;;;;;14.23;12.73;;;12.90;99.90;;;;;;5051927;28;20051;-26
2022/06/17 03:09:18;;;;;;;13.82;11.30;;;12.90;99.90;;;;;;5051724;28;20053;-27
2022/06/17 03:11:47;;;;;;;13.20;11.82;;;12.90;99.90;;;;;;5050969;28;20041;-26
2022/06/17 03:14:13;;;;;;;13.35;11.40;;;13.00;99.90;;;;;;5051733;28;20507;-26
2022/06/17 03:16:41;;;;;;;12.65;11.27;;;13.00;99.90;;;;;;5028537;28;20041;-27
2022/06/17 03:19:07;;;;;;;12.50;11.23;;;13.00;99.90;;;;;;5047905;28;20040;-26
2022/06/17 03:21:33;;;;;;;13.45;12.02;;;13.00;99.90;;;;;;5047327;28;20043;-26
2022/06/17 03:24:11;;;;;;;14.57;12.23;;;13.00;99.90;;;;;;5039514;28;20120;-27
2022/06/17 03:26:56;;;;;;;13.90;12.60;;;13.10;99.90;;;;;;5034975;28;20050;-27
2022/06/17 03:29:24;;;;;;;13.80;11.80;;;13.10;99.90;;;;;;5037017;28;20040;-26
2022/06/17 03:31:57;;;;;;;13.02;11.82;;;13.10;99.90;;;;;;5029549;28;20041;-26
2022/06/17 03:34:37;;;;;;;14.57;12.03;;;13.20;99.90;;;;;;5045247;28;20037;-26
2022/06/17 03:37:18;;;;;;;14.32;12.93;;;13.20;99.90;;;;;;5019729;28;20080;-26
2022/06/17 03:39:52;;;;;;;15.05;13.38;;;13.30;99.90;;;;;;5050857;28;20045;-26
2022/06/17 03:42:50;;;;;;;14.73;13.07;;;13.40;99.90;;;;;;5049282;28;20400;-26
2022/06/17 03:45:22;;;;;;;15.20;13.63;;;13.50;99.90;;;;;;4995769;28;20396;-27
2022/06/17 03:48:16;;;;;;;13.95;12.55;;;13.60;99.90;;;;;;5050967;28;20044;-27
2022/06/17 03:50:47;;;;;;;13.90;12.57;;;13.70;99.90;;;;;;5033249;28;20409;-27
2022/06/17 03:53:33;;;;;;;14.15;12.77;;;13.80;99.90;;;;;;5033004;28;20521;-26
2022/06/17 03:56:07;;;;;;;15.95;12.95;;;13.80;99.90;;;;;;5044759;28;20284;-26
2022/06/17 03:58:36;;;;;;;14.95;13.48;;;13.90;99.90;;;;;;5039305;28;20064;-26
2022/06/17 04:01:19;;;;;;;15.88;13.80;;;13.90;99.90;;;;;;5050634;28;20051;-26
2022/06/17 04:03:50;;;;;;;19.13;13.68;;;14.00;99.90;;;;;;5025746;28;20040;-26
2022/06/17 04:06:20;;;;;;;15.88;13.65;;;14.00;99.90;;;;;;5040501;28;20060;-27
2022/06/17 04:09:02;;;;;;;16.23;14.23;;;14.10;99.90;;;;;;5042602;28;20044;-26
2022/06/17 04:11:38;;;;;;;15.98;13.35;;;14.10;99.90;;;;;;5037243;28;20520;-26
2022/06/17 04:14:14;;;;;;;15.13;13.52;;;14.20;99.90;;;;;;5044811;28;20072;-26
2022/06/17 04:16:57;;;;;;;14.85;13.45;;;14.20;99.90;;;;;;5050742;28;20033;-26
2022/06/17 04:19:25;;;;;;;15.45;13.85;;;14.30;99.90;;;;;;5048394;28;20480;-26
2022/06/17 04:21:52;;;;;;;15.73;14.15;;;14.40;99.90;;;;;;5031418;28;20100;-26
2022/06/17 04:24:23;;;;;;;15.75;14.10;;;14.40;99.90;;;;;;5049001;28;20053;-27
2022/06/17 04:26:54;;;;;;;15.32;13.80;;;14.50;99.90;;;;;;5053765;28;20158;-27
2022/06/17 04:29:35;;;;;;;15.55;14.05;;;14.60;99.90;;;;;;5053344;28;20037;-27
2022/06/17 04:32:21;;;;;;;15.63;14.02;;;14.70;99.90;;;;;;5049309;28;20112;-27
2022/06/17 04:34:47;;;;;;;16.83;14.07;;;14.90;99.90;;;;;;5050485;28;20075;-27
2022/06/17 04:37:20;;;;;;;15.98;14.20;;;15.00;99.90;;;;;;5052839;28;20029;-27
2022/06/17 04:39:57;;;;;;;15.52;13.60;;;15.10;99.90;;;;;;5044583;28;20029;-27
2022/06/17 04:42:30;;;;;;;15.25;13.50;;;15.20;99.90;;;;;;5047489;28;20520;-27
2022/06/17 04:44:56;;;;;;;14.63;13.23;;;15.20;99.90;;;;;;5047836;28;20045;-27
2022/06/17 04:47:22;;;;;;;16.45;14.60;;;15.30;99.90;;;;;;5049367;28;20131;-26
2022/06/17 04:49:58;;;;;;;16.00;14.27;;;15.30;99.90;;;;;;5045634;28;20048;-27
2022/06/17 04:52:32;;;;;;;16.02;14.43;;;15.40;99.90;;;;;;5033004;28;20045;-26
2022/06/17 04:54:59;;;;;;;17.50;15.70;;;15.40;99.90;;;;;;5016370;28;20128;-27
2022/06/17 04:57:27;;;;;;;17.45;15.60;;;15.50;99.90;;;;;;5052101;28;20501;-26
2022/06/17 04:59:58;;;;;;;15.35;13.88;;;15.60;99.90;;;;;;5049693;28;20092;-26
2022/06/17 05:02:27;;;;;;;15.88;14.40;;;15.60;99.90;;;;;;5049813;28;20052;-26
2022/06/17 05:04:57;;;;;;;16.10;14.60;;;15.70;99.90;;;;;;5050117;28;20040;-26
2022/06/17 05:07:25;;;;;;;16.80;15.10;;;15.80;99.90;;;;;;5048162;28;20041;-26
2022/06/17 05:09:57;;;;;;;16.15;14.65;;;15.90;99.90;;;;;;5044899;28;20567;-26
2022/06/17 05:12:48;;;;;;;16.40;14.80;;;16.00;99.90;;;;;;5051068;28;20037;-26
2022/06/17 05:15:17;;;;;;;16.65;15.02;;;16.00;99.90;;;;;;5051299;28;20076;-26
2022/06/17 05:17:44;;;;;;;16.67;15.07;;;16.10;99.90;;;;;;5015164;28;20487;-26
2022/06/17 05:20:21;;;;;;;17.63;14.32;;;16.10;99.90;;;;;;5041926;28;20639;-26
2022/06/17 05:23:07;;;;;;;16.05;13.38;;;16.20;99.90;;;;;;5046154;28;20444;-27
2022/06/17 05:25:36;;;;;;;17.05;15.32;;;16.30;99.90;;;;;;5043000;28;20040;-26
2022/06/17 05:28:06;;;;;;;16.08;14.52;;;16.30;99.90;;;;;;5048454;28;20501;-26
2022/06/17 05:30:37;;;;;;;15.32;13.90;;;16.40;99.90;;;;;;5037061;28;20041;-26
2022/06/17 05:33:04;;;;;;;15.73;14.02;;;16.40;99.90;;;;;;5050402;28;20052;-26
2022/06/17 05:35:29;;;;;;;17.15;15.50;;;16.50;99.90;;;;;;5052572;28;20087;-26
2022/06/17 05:37:55;;;;;;;18.00;14.63;;;16.50;99.90;;;;;;5051124;28;20044;-26
2022/06/17 05:40:21;;;;;;;15.68;14.27;;;16.60;99.90;;;;;;5046363;28;20033;-26
2022/06/17 05:42:47;;;;;;;15.30;13.80;;;16.60;99.90;;;;;;5049505;28;20373;-26
2022/06/17 05:45:16;;;;;;;16.52;14.88;;;16.70;99.90;;;;;;5053119;28;20033;-26
2022/06/17 05:47:42;;;;;;;15.70;14.20;;;16.80;99.90;;;;;;5052994;28;20047;-26
2022/06/17 05:50:11;;;;;;;16.45;14.82;;;16.90;99.90;;;;;;5028274;28;20052;-26
2022/06/17 05:52:49;;;;;;;15.02;13.48;;;16.90;99.90;;;;;;5052857;28;20440;-26
2022/06/17 05:55:15;;;;;;;15.18;13.68;;;17.00;99.90;;;;;;5053059;28;20063;-26
2022/06/17 05:57:40;;;;;;;15.48;13.43;;;17.10;99.90;;;;;;5051187;28;20484;-26
2022/06/17 06:00:07;;;;;;;15.13;13.63;;;17.10;99.90;;;;;;5043089;28;20496;-25
2022/06/17 06:02:33;;;;;;;16.08;14.32;;;17.20;99.90;;;;;;4998986;28;20058;-25
2022/06/17 06:04:59;;;;;;;18.48;15.00;;;17.30;99.90;;;;;;5048431;28;20130;-27
2022/06/17 06:07:25;;;;;;;14.88;13.27;;;17.40;99.90;;;;;;5043191;28;20076;-28
2022/06/17 06:09:51;;;;;;;15.43;13.13;;;17.40;99.90;;;;;;5042031;28;20040;-28
2022/06/17 06:12:18;;;;;;;15.10;12.52;;;17.50;99.90;;;;;;5044317;28;20037;-28
2022/06/17 06:14:43;;;;;;;19.58;14.25;;;17.60;99.90;;;;;;5042745;28;20516;-28
2022/06/17 06:17:11;;;;;;;16.27;13.05;;;17.70;99.90;;;;;;5041635;28;20044;-28
2022/06/17 06:19:37;;;;;;;18.15;12.65;;;17.80;99.90;;;;;;5043417;28;20396;-28
2022/06/17 06:22:03;;;;;;;18.25;12.65;;;17.90;99.90;;;;;;5038687;28;20033;-28
2022/06/17 06:24:29;;;;;;;16.27;11.63;;;18.00;99.90;;;;;;5022400;28;20064;-28
2022/06/17 06:26:55;;;;;;;14.15;12.60;;;18.00;99.90;;;;;;5022981;28;20052;-28
2022/06/17 06:29:20;;;;;;;14.65;11.48;;;18.00;99.90;;;;;;5041364;28;20034;-28
2022/06/17 06:31:48;;;;;;;13.20;11.90;;;18.10;99.90;;;;;;5043698;28;20040;-28
2022/06/17 06:34:16;;;;;;;14.57;12.00;;;18.10;99.90;;;;;;5039289;28;20112;-27
2022/06/17 06:36:42;;;;;;;13.45;12.07;;;18.10;99.90;;;;;;5019030;28;20033;-27
2022/06/17 06:39:09;;;;;;;12.65;11.35;;;18.10;99.90;;;;;;5031183;28;20135;-27
2022/06/17 06:41:35;;;;;;;14.55;11.52;;;18.20;99.90;;;;;;5039005;28;20044;-28
2022/06/17 06:44:01;;;;;;;12.80;11.55;;;18.30;99.90;;;;;;5046444;28;20041;-28
2022/06/17 06:46:27;;;;;;;14.05;10.73;;;18.30;99.90;;;;;;5044615;28;20041;-28
2022/06/17 06:48:53;;;;;;;14.35;10.50;;;18.40;99.90;;;;;;5035474;28;20334;-28
2022/06/17 06:51:19;;;;;;;12.40;10.60;;;18.50;99.90;;;;;;5031908;28;20052;-28
2022/06/17 06:53:45;;;;;;;11.95;10.15;;;18.60;99.90;;;;;;5037795;28;20049;-28
2022/06/17 06:56:11;;;;;;;10.48;9.52;;;18.60;99.90;;;;;;5032644;28;20045;-28
2022/06/17 06:58:38;;;;;;;10.95;9.88;;;18.80;99.90;;;;;;5036782;28;20048;-28
2022/06/17 07:01:04;;;;;;;12.25;11.15;;;19.00;99.90;;;;;;5035916;28;20049;-29
2022/06/17 07:03:30;;;;;;;17.02;10.77;;;19.20;99.90;;;;;;5032392;28;20561;-28
2022/06/17 07:06:00;;;;;;;10.43;9.52;;;19.50;99.90;;;;;;5036825;28;20052;-28
2022/06/17 07:08:28;;;;;;;11.80;10.52;;;19.70;99.90;;;;;;5041548;28;20029;-28
2022/06/17 07:10:56;;;;;;;10.82;9.82;;;19.90;99.90;;;;;;5040484;28;20045;-28
2022/06/17 07:13:22;;;;;;;10.85;9.30;;;20.10;99.90;;;;;;5038531;28;20041;-28
2022/06/17 07:15:53;;;;;;;14.70;9.60;;;20.20;99.90;;;;;;5022542;28;20052;-28
2022/06/17 07:18:23;;;;;;;10.13;9.05;;;20.40;99.90;;;;;;5045583;28;20037;-28
2022/06/17 07:21:10;;;;;;;11.98;9.27;;;20.60;99.90;;;;;;5043770;28;20045;-28
2022/06/17 07:23:39;;;;;;;9.75;8.85;;;20.80;99.90;;;;;;5038480;28;20032;-28
2022/06/17 07:26:09;;;;;;;11.00;9.15;;;21.00;99.90;;;;;;5039512;28;20488;-28
2022/06/17 07:28:35;;;;;;;10.35;8.90;;;20.90;99.90;;;;;;5041375;28;20119;-28
2022/06/17 07:31:01;;;;;;;10.90;8.20;;;21.00;99.90;;;;;;5043684;28;20036;-28
2022/06/17 07:33:30;;;;;;;10.57;8.40;;;21.10;99.80;;;;;;5043980;28;20048;-28
2022/06/17 07:35:59;;;;;;;10.75;7.78;;;21.20;99.30;;;;;;5044782;28;20496;-28
2022/06/17 07:41:17;;;;;;;8.82;8.00;;;21.20;94.90;;;;;;5041921;28;20492;-28
2022/06/17 07:43:42;;;;;;;8.00;7.25;;;21.20;95.00;;;;;;5040224;28;20048;-28
2022/06/17 07:46:08;;;;;;;11.25;8.20;;;21.30;94.60;;;;;;5035129;28;20071;-29
2022/06/17 07:48:36;;;;;;;9.23;8.30;;;21.40;93.90;;;;;;5039024;28;20033;-29
2022/06/17 07:51:01;;;;;;;9.75;7.80;;;21.70;92.40;;;;;;5047427;28;20516;-29
2022/06/17 07:53:30;;;;;;;8.85;7.95;;;21.80;91.20;;;;;;5020989;28;20102;-29
2022/06/17 07:55:58;;;;;;;9.32;7.50;;;21.90;90.80;;;;;;5041852;28;20037;-29
2022/06/17 07:58:24;;;;;;;8.98;7.82;;;22.00;86.90;;;;;;5042457;28;20138;-29
2022/06/17 08:00:50;;;;;;;8.25;7.18;;;22.30;87.40;;;;;;5047978;28;20384;-29
2022/06/17 08:03:18;;;;;;;9.45;6.50;;;22.50;85.70;;;;;;5042115;28;20049;-29
2022/06/17 08:05:47;;;;;;;8.63;7.05;;;22.80;84.00;;;;;;5032134;28;20040;-29
2022/06/17 08:08:21;;;;;;;8.40;7.18;;;23.10;80.60;;;;;;5039600;28;20041;-29
2022/06/17 08:10:48;;;;;;;7.32;6.63;;;23.30;76.70;;;;;;5049154;28;20037;-29
2022/06/17 08:13:14;;;;;;;7.95;7.15;;;23.30;75.40;;;;;;5042741;28;20033;-29
2022/06/17 08:15:40;;;;;;;8.93;7.22;;;23.30;73.30;;;;;;5019452;28;20033;-29
2022/06/17 08:18:06;;;;;;;7.60;6.85;;;23.20;72.70;;;;;;5035399;28;20401;-29
2022/06/17 08:20:34;;;;;;;7.43;6.70;;;23.20;72.30;;;;;;5030847;28;20029;-29
2022/06/17 08:23:02;;;;;;;8.50;7.53;;;23.20;71.90;;;;;;5041772;28;20063;-29
2022/06/17 08:25:29;;;;;;;8.77;7.82;;;23.30;70.60;;;;;;5034838;28;20049;-29
2022/06/17 08:27:57;;;;;;;7.60;6.90;;;23.30;69.40;;;;;;5035486;28;20143;-29
2022/06/17 08:30:29;;;;;;;7.22;6.63;;;23.40;70.10;;;;;;5037476;28;20041;-29
2022/06/17 08:32:56;;;;;;;7.13;6.43;;;23.60;69.40;;;;;;5039137;28;20053;-29
2022/06/17 08:35:31;;;;;;;6.80;6.20;;;23.90;71.30;;;;;;5039434;28;20033;-29
2022/06/17 08:38:03;;;;;;;8.05;6.78;;;24.10;66.60;;;;;;5042562;28;20122;-29
2022/06/17 08:40:49;;;;;;;8.50;6.90;;;24.20;69.90;;;;;;5028892;28;20033;-29
2022/06/17 08:43:48;;;;;;;7.53;6.80;;;24.30;68.50;;;;;;5044759;28;20496;-30
2022/06/17 08:46:51;;;;;;;7.35;6.65;;;24.40;64.30;;;;;;5040232;28;20069;-30
2022/06/17 08:49:35;;;;;;;9.02;7.10;;;24.40;66.20;;;;;;5043852;28;20033;-30
2022/06/17 08:52:14;;;;;;;8.75;6.93;;;24.50;64.90;;;;;;5041906;28;20137;-30
2022/06/17 08:55:21;;;;;;;7.82;6.53;;;24.60;65.30;;;;;;5021892;28;20098;-29
2022/06/17 08:57:58;;;;;;;6.93;6.22;;;24.70;64.30;;;;;;4967215;28;20042;-29
2022/06/17 09:00:36;;;;;;;6.65;5.22;;;24.70;61.60;;;;;;5034548;28;20072;-29
2022/06/17 09:03:32;;;;;;;7.03;4.70;;;24.70;61.20;;;;;;5040881;28;20074;-30
2022/06/17 09:06:37;;;;;;;4.75;4.35;;;24.50;57.90;;;;;;5045002;28;20048;-30
2022/06/17 09:09:13;;;;;;;5.18;4.43;;;24.50;60.40;;;;;;5042373;28;20526;-30
2022/06/17 09:11:58;;;;;;;6.80;4.35;;;24.40;59.10;;;;;;5029222;28;20069;-30
2022/06/17 09:15:05;;;;;;;7.43;4.45;;;24.30;58.30;;;;;;5051552;28;20028;-29
2022/06/17 09:17:51;;;;;;;6.20;4.43;;;24.20;59.00;;;;;;5047908;28;20439;-29
2022/06/17 09:20:22;;;;;;;4.80;3.92;;;24.20;59.60;;;;;;5022512;28;20053;-29
2022/06/17 09:22:54;;;;;;;6.68;4.78;;;24.20;59.40;;;;;;5046805;28;20115;-29
2022/06/17 09:25:28;;;;;;;4.68;4.28;;;24.30;59.00;;;;;;5043229;28;20080;-30
2022/06/17 09:27:56;;;;;;;5.63;4.60;;;24.30;59.00;;;;;;5039931;28;20078;-29
2022/06/17 09:30:34;;;;;;;5.43;4.82;;;24.30;59.10;;;;;;5048602;28;20103;-29
2022/06/17 09:33:28;;;;;;;5.95;4.00;;;24.30;59.70;;;;;;5049851;28;20115;-26
2022/06/17 09:36:15;;;;;;;5.55;4.60;;;24.50;60.50;;;;;;5050171;28;20045;-26
2022/06/17 09:38:48;;;;;;;8.10;4.53;;;24.60;60.50;;;;;;5051616;28;20044;-27
2022/06/17 09:41:26;;;;;;;5.43;4.20;;;24.70;60.30;;;;;;5042227;28;20037;-27
2022/06/17 09:44:02;;;;;;;7.75;4.80;;;24.80;59.70;;;;;;5028763;28;20120;-27
2022/06/17 09:46:34;;;;;;;4.78;4.38;;;25.00;59.20;;;;;;5052930;28;20041;-27
2022/06/17 09:49:20;;;;;;;6.87;4.43;;;25.20;59.20;;;;;;5054196;28;20116;-27
2022/06/17 09:52:04;;;;;;;6.00;5.35;;;25.50;57.40;;;;;;5050643;28;20098;-27
2022/06/17 09:55:01;;;;;;;7.50;5.50;;;25.70;57.40;;;;;;5054518;28;20446;-27
2022/06/17 09:57:43;;;;;;;6.47;5.47;;;25.60;56.00;;;;;;5019326;28;20068;-27
2022/06/17 10:00:14;;;;;;;7.45;5.32;;;25.70;54.50;;;;;;5047127;28;20370;-27
2022/06/17 10:02:49;;;;;;;6.38;4.78;;;25.70;56.00;;;;;;5034897;28;20034;-27
2022/06/17 10:05:37;;;;;;;5.30;4.80;;;25.90;55.90;;;;;;5046509;28;20044;-27
2022/06/17 10:08:43;;;;;;;6.40;5.40;;;26.20;55.60;;;;;;5029825;28;20076;-27
2022/06/17 10:11:41;;;;;;;9.50;4.93;;;26.50;55.50;;;;;;4949849;29;20103;-27
2022/06/17 10:14:25;;;;;;;7.03;5.55;;;26.50;54.70;;;;;;5015581;28;20095;-28
2022/06/17 10:20:27;;;;;;;8.32;5.22;;;26.40;54.00;;;;;;5053494;28;20287;-27
2022/06/17 10:23:00;;;;;;;9.38;5.93;;;26.50;54.80;;;;;;4973714;28;20554;-28
2022/06/17 10:25:29;;;;;;;;;;;26.40;54.80;;;;;;5023922;28;21401;-30
2022/06/17 10:28:15;;;;;;;6.95;5.38;;;26.30;53.10;;;;;;5045611;28;19916;-30
2022/06/17 10:31:05;;;;;;;7.00;4.97;;;26.40;53.20;;;;;;5049072;28;20566;-30
2022/06/17 10:33:34;;;;;;;5.28;4.43;;;26.50;54.90;;;;;;5050875;28;20071;-30
2022/06/17 10:36:00;;;;;;;7.32;4.50;;;26.50;52.90;;;;;;5040299;28;20037;-29
2022/06/17 10:38:32;;;;;;;5.57;4.30;;;26.40;53.60;;;;;;5042145;28;20553;-31
2022/06/17 10:40:58;;;;;;;4.78;4.30;;;26.70;53.80;;;;;;5036886;28;20045;-30
2022/06/17 10:43:41;;;;;;;6.38;4.75;;;26.90;52.90;;;;;;5044323;28;20033;-30
2022/06/17 10:46:14;;;;;;;6.15;4.30;;;27.00;52.20;;;;;;5047234;28;20041;-30
2022/06/17 10:48:51;;;;;;;4.95;4.45;;;27.10;52.00;;;;;;5049283;28;20032;-30
2022/06/17 10:51:18;;;;;;;7.18;5.07;;;27.00;51.20;;;;;;5039410;28;20045;-31
2022/06/17 10:53:55;;;;;;;6.28;4.63;;;26.80;51.00;;;;;;5043102;28;20072;-31
2022/06/17 10:56:42;;;;;;;7.63;4.78;;;26.80;50.60;;;;;;5042678;28;20121;-31
2022/06/17 10:59:11;;;;;;;4.97;4.45;;;26.80;51.50;;;;;;5044540;28;20049;-30
2022/06/17 11:01:46;;;;;;;8.60;6.15;;;26.90;51.10;;;;;;5040438;28;20041;-30
2022/06/17 11:04:25;;;;;;;7.20;5.57;;;27.00;50.80;;;;;;5042680;28;20043;-30
2022/06/17 11:06:54;;;;;;;5.88;4.50;;;27.10;50.60;;;;;;5030982;28;20060;-30
2022/06/17 11:09:28;;;;;;;5.57;4.30;;;27.40;51.30;;;;;;5049681;28;20045;-28
2022/06/17 11:12:10;;;;;;;6.32;5.05;;;27.50;50.70;;;;;;5041753;28;20400;-30
2022/06/17 11:14:42;;;;;;;6.17;4.53;;;27.60;52.30;;;;;;5034114;28;20037;-29
2022/06/17 11:17:16;;;;;;;5.85;4.15;;;27.50;51.00;;;;;;5033231;28;20060;-29
2022/06/17 11:19:44;;;;;;;6.78;4.38;;;27.40;50.00;;;;;;5041804;28;20074;-29
2022/06/17 11:22:30;;;;;;;8.30;4.47;;;27.20;50.40;;;;;;5050264;28;20037;-28
2022/06/17 11:25:02;;;;;;;4.78;3.72;;;27.10;51.50;;;;;;5051069;28;20041;-28
2022/06/17 11:27:36;;;;;;;7.18;4.22;;;27.20;51.10;;;;;;5051309;28;20045;-28
2022/06/17 11:30:34;;;;;;;7.45;4.13;;;27.20;50.50;;;;;;5052844;28;20052;-28
2022/06/17 11:33:01;;;;;;;7.32;4.38;;;27.20;50.90;;;;;;5037082;28;20057;-28
2022/06/17 11:35:29;;;;;;;5.30;3.80;;;27.10;50.50;;;;;;5053036;28;20037;-28
2022/06/17 11:37:57;;;;;;;4.15;3.60;;;27.10;50.30;;;;;;5052517;28;20064;-28
2022/06/17 11:40:26;;;;;;;5.55;4.45;;;27.10;50.30;;;;;;5033792;28;20093;-27
2022/06/17 11:42:59;;;;;;;7.07;4.00;;;27.10;50.50;;;;;;5052206;28;20128;-28
2022/06/17 11:45:32;;;;;;;6.72;3.88;;;27.20;50.90;;;;;;5032981;28;20049;-28
2022/06/17 11:48:05;;;;;;;5.57;4.28;;;27.20;51.00;;;;;;5031362;28;20102;-28
2022/06/17 11:50:37;;;;;;;4.97;4.22;;;27.30;49.80;;;;;;5031246;28;20041;-28
2022/06/17 11:53:17;;;;;;;4.38;3.97;;;27.60;50.20;;;;;;5031682;28;20046;-28
2022/06/17 11:55:48;;;;;;;5.55;4.00;;;28.10;49.40;;;;;;5032823;28;20348;-28
2022/06/17 11:58:19;;;;;;;5.28;3.72;;;28.50;50.40;;;;;;5033815;28;20086;-28
2022/06/17 12:00:54;;;;;;;5.95;3.80;;;28.80;49.50;;;;;;5033606;28;20034;-27
2022/06/17 12:03:41;;;;;;;5.10;4.00;;;29.30;50.30;;;;;;5041684;28;20046;-30
2022/06/17 12:06:27;;;;;;;5.40;4.30;;;29.80;48.60;;;;;;5018811;28;20102;-27
2022/06/17 12:08:59;;;;;;;4.07;3.50;;;29.90;48.00;;;;;;5032105;28;20046;-27
2022/06/17 12:11:56;;;;;;;5.43;4.50;;;29.90;47.00;;;;;;5046123;28;20047;-29
2022/06/17 12:14:51;;;;;;;7.60;4.20;;;30.20;46.10;;;;;;5071497;28;20102;-29
2022/06/17 12:17:20;;;;;;;6.43;3.80;;;30.20;43.70;;;;;;5060963;28;20045;-29
2022/06/17 12:19:46;;;;;;;5.18;4.40;;;30.40;45.50;;;;;;5069076;28;20115;-29
2022/06/17 12:22:22;;;;;;;5.05;4.57;;;30.30;46.30;;;;;;5069342;28;20538;-28
2022/06/17 12:25:09;;;;;;;4.82;4.32;;;30.10;45.10;;;;;;5045271;28;20115;-28
2022/06/17 12:27:43;;;;;;;7.10;4.93;;;30.30;44.00;;;;;;5049516;28;20049;-28
2022/06/17 12:30:22;;;;;;;5.07;4.25;;;30.30;43.70;;;;;;5042694;28;20048;-28
2022/06/17 12:33:18;;;;;;;4.95;4.28;;;30.40;43.70;;;;;;5037487;28;20049;-28
2022/06/17 12:35:47;;;;;;;5.35;4.03;;;30.50;45.70;;;;;;5050783;28;20036;-28
2022/06/17 12:38:23;;;;;;;4.78;4.30;;;30.70;44.50;;;;;;5060880;28;20134;-28
2022/06/17 12:41:10;;;;;;;5.90;4.13;;;31.00;44.90;;;;;;5055243;28;20040;-28
2022/06/17 12:44:04;;;;;;;5.85;4.05;;;31.00;42.40;;;;;;5049944;28;20435;-28
2022/06/17 12:46:49;;;;;;;5.00;3.92;;;31.10;44.00;;;;;;5055175;28;20516;-28
2022/06/17 12:55:16;;;;;;;5.70;4.45;;;31.60;41.30;;;;;;5043614;28;20040;-28
2022/06/17 12:58:04;;;;;;;4.47;4.07;;;31.50;42.50;;;;;;5053831;28;20485;-28
2022/06/17 13:00:30;;;;;;;6.22;4.10;;;31.70;43.30;;;;;;5028204;28;20075;-28
2022/06/17 13:03:36;;;;;;;6.22;4.57;;;31.90;43.40;;;;;;5050159;28;20445;-28
2022/06/17 13:06:41;;;;;;;5.70;4.32;;;32.20;41.40;;;;;;5019305;28;20058;-27
2022/06/17 13:09:19;;;;;;;5.18;4.68;;;32.10;41.40;;;;;;5004978;28;20064;-28
2022/06/17 13:11:52;;;;;;;5.70;4.18;;;32.20;39.90;;;;;;5021754;28;20120;-28
2022/06/17 13:14:39;;;;;;;4.13;3.72;;;32.50;40.30;;;;;;5055852;28;20041;-28
2022/06/17 13:17:16;;;;;;;7.45;4.13;;;32.70;40.20;;;;;;5055885;28;20041;-28
2022/06/17 13:19:54;;;;;;;4.05;3.60;;;33.10;37.60;;;;;;5037693;28;20134;-28
2022/06/17 13:22:25;;;;;;;4.10;3.80;;;33.50;39.10;;;;;;5051054;28;20095;-28
2022/06/17 13:24:59;;;;;;;7.70;4.30;;;33.60;38.20;;;;;;5032086;28;20043;-28